Farmington, Washington
Current Conditions -  °F | °C
As of 5:53 AM on Thursday 30 Oct 2014 (Local Time) from KPUW Reporting Station
Overcast Overcast  
Wind Chill: 43°   Ceiling: 12000
Heat Index: 49°   Visibility: 9mi
Dew Point: 42°   Wind: 16mph
Humidity: 77%   Direction: 90°E
Pressure: 30.11"   Gusts: NA
Location:  47.09°N, 117.04°W
Report Text: KPUW 301253Z AUTO 09014KT 9SM FEW075 OVC120 09/06 A3011 RMK AO2 SLP200 T00940056
Loading
Personal Weather Stations






























Interactive Weather Map
Tropical Storm Tracking
New forecast layout! Learn more

10-Day Weather Forecast

Advertisements
Track Severe Weather on mobile